Safaga, Egypt
Current Conditions -  °F | °C
As of 9:00 AM on Tuesday 21 Oct 2014 (Local Time) from HEGN Reporting Station
Clear Clear  
Wind Chill: 77°   Ceiling: Unl
Heat Index: 79°   Visibility: 6mi
Dew Point: 55°   Wind: 12mph
Humidity: 47%   Direction: 350°N
Pressure: 29.97"   Gusts: NA
Location:  26.73°N, 33.93°E
Report Text: HEGN 210700Z 35010KT CAVOK 25/13 Q1015 NOSIG
Loading
Personal Weather Stations






























Interactive Weather Map
Tropical Storm Tracking
New forecast layout! Learn more

10-Day Weather Forecast

Advertisements
Track Severe Weather on mobile